createdAt,value
2018-06-30T00:00:28.360Z,12.00
2018-06-30T00:02:56.532Z,11.50
2018-06-30T00:05:24.682Z,11.37
2018-06-30T00:07:53.020Z,12.13
2018-06-30T00:10:28.135Z,12.73
2018-06-30T00:12:56.718Z,12.80
2018-06-30T00:15:24.894Z,12.37
2018-06-30T00:17:53.043Z,12.20
2018-06-30T00:20:21.248Z,11.97
2018-06-30T00:22:49.432Z,11.27
2018-06-30T00:25:17.607Z,10.97
2018-06-30T00:27:45.775Z,10.87
2018-06-30T00:30:13.931Z,10.57
2018-06-30T00:32:41.846Z,11.43
2018-06-30T00:35:10.032Z,9.73
2018-06-30T00:37:38.197Z,11.00
2018-06-30T00:40:06.357Z,11.20
2018-06-30T00:42:34.548Z,10.77
2018-06-30T00:45:02.716Z,10.77
2018-06-30T00:47:30.892Z,10.17
2018-06-30T00:49:59.084Z,11.80
2018-06-30T00:52:27.233Z,11.17
2018-06-30T00:54:55.412Z,10.53
2018-06-30T00:57:23.575Z,11.60
2018-06-30T00:59:51.812Z,11.50
2018-06-30T01:02:19.746Z,10.67
2018-06-30T01:04:47.967Z,9.20
2018-06-30T01:07:16.162Z,9.70
2018-06-30T01:09:44.363Z,8.90
2018-06-30T01:12:12.570Z,10.17
2018-06-30T01:14:40.507Z,11.50
2018-06-30T01:17:08.714Z,9.47
2018-06-30T01:19:36.641Z,9.57
2018-06-30T01:22:04.855Z,8.97
2018-06-30T01:24:33.068Z,8.97
2018-06-30T01:27:01.293Z,8.73
2018-06-30T01:29:29.494Z,8.07
2018-06-30T01:31:57.682Z,8.63
2018-06-30T01:34:25.883Z,8.30
2018-06-30T01:36:54.086Z,9.13
2018-06-30T01:39:22.291Z,9.00
2018-06-30T01:41:50.233Z,8.30
2018-06-30T01:44:18.437Z,8.63
2018-06-30T01:46:46.649Z,7.80
2018-06-30T01:49:14.867Z,7.20
2018-06-30T01:51:43.054Z,7.30
2018-06-30T01:54:11.009Z,7.03
2018-06-30T01:56:39.201Z,7.70
2018-06-30T01:59:07.142Z,7.57
2018-06-30T02:01:35.330Z,7.10
2018-06-30T02:04:03.539Z,7.90
2018-06-30T02:06:31.738Z,8.27
2018-06-30T02:08:59.960Z,7.57
2018-06-30T02:11:28.666Z,6.67
2018-06-30T02:13:56.887Z,6.70
2018-06-30T02:16:25.079Z,7.10
2018-06-30T02:18:53.295Z,7.30
2018-06-30T02:21:21.474Z,7.07
2018-06-30T02:23:49.694Z,5.50
2018-06-30T02:26:17.904Z,5.63
2018-06-30T02:28:46.144Z,6.33
2018-06-30T02:31:14.354Z,6.30
2018-06-30T02:33:42.551Z,6.70
2018-06-30T02:36:10.797Z,6.60
2018-06-30T02:38:38.797Z,5.93
2018-06-30T02:41:07.004Z,6.10
2018-06-30T02:43:35.209Z,5.43
2018-06-30T02:46:03.205Z,5.37
2018-06-30T02:48:31.367Z,6.77
2018-06-30T02:50:59.555Z,6.20
2018-06-30T02:53:27.951Z,5.97
2018-06-30T02:55:56.167Z,6.47
2018-06-30T02:58:24.374Z,6.37
2018-06-30T03:00:52.592Z,5.97
2018-06-30T03:03:20.787Z,5.10
2018-06-30T03:05:48.986Z,4.70
2018-06-30T03:08:17.183Z,5.70
2018-06-30T03:10:45.400Z,5.83
2018-06-30T03:13:13.593Z,5.43
2018-06-30T03:15:41.531Z,5.93
2018-06-30T03:18:09.733Z,4.60
2018-06-30T03:20:37.927Z,5.13
2018-06-30T03:23:06.469Z,5.10
2018-06-30T03:25:34.735Z,4.50
2018-06-30T03:28:02.951Z,5.27
2018-06-30T03:30:30.899Z,4.90
2018-06-30T03:32:59.091Z,4.77
2018-06-30T03:35:27.043Z,5.50
2018-06-30T03:37:55.243Z,5.30
2018-06-30T03:40:23.450Z,5.10
2018-06-30T03:42:51.661Z,5.13
2018-06-30T03:45:20.407Z,5.60
2018-06-30T03:47:48.600Z,5.57
2018-06-30T03:50:16.804Z,5.73
2018-06-30T03:52:45.010Z,5.03
2018-06-30T03:55:13.211Z,4.63
2018-06-30T03:57:41.400Z,4.87
2018-06-30T04:00:09.611Z,5.33
2018-06-30T04:02:37.809Z,5.30
2018-06-30T04:05:06.115Z,5.80
2018-06-30T04:07:34.507Z,6.57
2018-06-30T04:10:02.719Z,5.83
2018-06-30T04:12:30.661Z,5.00
2018-06-30T04:14:58.897Z,9.77
2018-06-30T04:17:27.154Z,12.00
2018-06-30T04:19:55.351Z,12.00
2018-06-30T04:22:23.553Z,11.87
2018-06-30T04:24:51.765Z,11.67
2018-06-30T04:27:19.974Z,10.43
2018-06-30T04:29:48.161Z,8.10
2018-06-30T04:32:16.353Z,7.87
2018-06-30T04:34:44.577Z,9.20
2018-06-30T04:37:12.770Z,9.00
2018-06-30T04:39:40.997Z,10.07
2018-06-30T04:42:09.397Z,10.63
2018-06-30T04:44:37.621Z,10.57
2018-06-30T04:47:05.891Z,9.50
2018-06-30T04:49:34.088Z,9.37
2018-06-30T04:52:02.332Z,8.80
2018-06-30T04:54:30.523Z,9.17
2018-06-30T04:56:58.724Z,9.33
2018-06-30T04:59:26.899Z,8.50
2018-06-30T05:01:55.051Z,9.20
2018-06-30T05:04:23.205Z,9.63
2018-06-30T05:06:51.371Z,9.10
2018-06-30T05:09:19.545Z,9.13
2018-06-30T05:11:47.704Z,8.60
2018-06-30T05:14:15.854Z,9.10
2018-06-30T05:16:44.045Z,10.07
2018-06-30T05:19:12.199Z,9.40
2018-06-30T05:21:40.354Z,9.23
2018-06-30T05:24:08.502Z,8.33
2018-06-30T05:26:36.646Z,7.80
2018-06-30T05:29:04.846Z,7.33
2018-06-30T05:31:33.006Z,8.50
2018-06-30T05:34:01.159Z,9.20
2018-06-30T05:36:29.310Z,7.87
2018-06-30T05:38:57.438Z,7.80
2018-06-30T05:41:25.594Z,7.47
2018-06-30T05:43:53.756Z,7.73
2018-06-30T05:46:21.937Z,7.73
2018-06-30T05:48:50.077Z,8.73
2018-06-30T05:51:18.235Z,7.47
2018-06-30T05:53:46.147Z,7.53
2018-06-30T05:56:14.300Z,8.40
2018-06-30T05:58:42.501Z,8.70
2018-06-30T06:01:10.719Z,8.93
2018-06-30T06:03:38.921Z,8.03
2018-06-30T06:06:07.217Z,8.20
2018-06-30T06:08:35.403Z,7.67
2018-06-30T06:11:03.600Z,8.50
2018-06-30T06:13:31.789Z,7.50
2018-06-30T06:15:59.979Z,8.30
2018-06-30T06:18:27.904Z,7.50
2018-06-30T06:20:56.124Z,6.67
2018-06-30T06:23:24.328Z,7.77
2018-06-30T06:25:52.518Z,7.30
2018-06-30T06:28:20.722Z,6.90
2018-06-30T06:30:48.919Z,6.60
2018-06-30T06:33:16.867Z,6.33
2018-06-30T06:35:45.107Z,6.43
2018-06-30T06:38:13.300Z,6.07
2018-06-30T06:40:41.515Z,5.67
2018-06-30T06:43:09.890Z,6.17
2018-06-30T06:45:38.098Z,5.00
2018-06-30T06:48:06.833Z,5.77
2018-06-30T06:50:35.358Z,6.57
2018-06-30T06:53:03.555Z,5.83
2018-06-30T06:55:31.744Z,6.10
2018-06-30T06:57:59.949Z,5.80
2018-06-30T07:00:28.184Z,5.60
2018-06-30T07:02:56.369Z,5.47
2018-06-30T07:05:24.577Z,5.13
2018-06-30T07:07:52.779Z,5.50
2018-06-30T07:10:20.966Z,5.80
2018-06-30T07:12:49.212Z,4.97
2018-06-30T07:15:17.399Z,5.13
2018-06-30T07:17:45.654Z,4.83
2018-06-30T07:20:13.856Z,5.20
2018-06-30T07:22:42.123Z,5.20
2018-06-30T07:25:10.317Z,6.20
2018-06-30T07:27:38.550Z,5.20
2018-06-30T07:30:06.586Z,5.63
2018-06-30T07:32:34.810Z,4.80
2018-06-30T07:35:04.490Z,5.10
2018-06-30T07:37:32.566Z,5.03
2018-06-30T07:40:00.780Z,5.60
2018-06-30T07:42:28.977Z,4.90
2018-06-30T07:44:57.204Z,4.97
2018-06-30T07:47:25.146Z,4.57
2018-06-30T07:49:53.343Z,5.00
2018-06-30T07:52:21.715Z,5.40
2018-06-30T07:54:50.619Z,5.13
2018-06-30T07:57:18.760Z,5.50
2018-06-30T07:59:46.909Z,5.10
2018-06-30T08:02:15.265Z,5.73
2018-06-30T08:04:43.424Z,6.20
2018-06-30T08:07:11.576Z,5.73
2018-06-30T08:09:40.071Z,5.13
2018-06-30T08:12:08.243Z,5.57
2018-06-30T08:14:36.476Z,5.73
2018-06-30T08:17:04.647Z,4.90
2018-06-30T08:19:32.848Z,5.00
2018-06-30T08:22:01.007Z,5.87
2018-06-30T08:24:29.152Z,6.70
2018-06-30T08:26:57.290Z,5.80
2018-06-30T08:29:25.532Z,6.60
2018-06-30T08:31:53.620Z,11.33
2018-06-30T08:34:21.785Z,5.87
2018-06-30T08:36:49.717Z,6.37
2018-06-30T08:39:17.881Z,5.63
2018-06-30T08:41:46.048Z,5.60
2018-06-30T08:44:14.212Z,5.30
2018-06-30T08:46:42.351Z,5.50
2018-06-30T08:49:10.513Z,6.20
2018-06-30T08:51:38.661Z,5.67
2018-06-30T08:54:06.794Z,5.67
2018-06-30T08:56:34.977Z,5.20
2018-06-30T08:59:03.129Z,6.97
2018-06-30T09:01:31.279Z,6.60
2018-06-30T09:03:59.438Z,5.70
2018-06-30T09:06:27.655Z,5.70
2018-06-30T09:08:55.771Z,6.30
2018-06-30T09:11:23.925Z,6.07
2018-06-30T09:13:52.342Z,6.40
2018-06-30T09:16:20.490Z,5.90
2018-06-30T09:18:48.641Z,4.80
2018-06-30T09:21:16.797Z,6.33
2018-06-30T09:23:44.950Z,5.83
2018-06-30T09:26:13.097Z,5.77
2018-06-30T09:28:41.238Z,5.70
2018-06-30T09:31:09.400Z,6.07
2018-06-30T09:33:37.557Z,6.10
2018-06-30T09:36:05.948Z,5.43
2018-06-30T09:38:34.118Z,5.60
2018-06-30T09:41:02.265Z,5.87
2018-06-30T09:43:30.561Z,5.90
2018-06-30T09:45:58.728Z,6.30
2018-06-30T09:48:26.874Z,6.33
2018-06-30T09:50:55.068Z,5.80
2018-06-30T09:53:23.194Z,5.60
2018-06-30T09:55:51.357Z,5.43
2018-06-30T09:58:19.508Z,5.20
2018-06-30T10:00:54.881Z,5.80
2018-06-30T10:03:23.827Z,5.90
2018-06-30T10:05:51.726Z,6.50
2018-06-30T10:08:19.889Z,6.97
2018-06-30T10:10:48.104Z,6.47
2018-06-30T10:13:16.249Z,6.50
2018-06-30T10:15:44.417Z,5.70
2018-06-30T10:18:12.559Z,5.83
2018-06-30T10:20:40.472Z,5.20
2018-06-30T10:23:08.625Z,5.70
2018-06-30T10:25:36.795Z,6.27
2018-06-30T10:28:05.001Z,6.07
2018-06-30T10:30:33.160Z,6.67
2018-06-30T10:33:01.316Z,6.73
2018-06-30T10:35:29.482Z,5.73
2018-06-30T10:37:57.621Z,5.77
2018-06-30T10:40:25.777Z,5.40
2018-06-30T10:42:53.924Z,5.60
2018-06-30T10:45:22.065Z,5.53
2018-06-30T10:47:50.203Z,5.70
2018-06-30T10:50:18.369Z,6.33
2018-06-30T10:52:46.523Z,5.23
2018-06-30T10:55:14.666Z,5.47
2018-06-30T10:57:42.817Z,5.60
2018-06-30T11:00:11.093Z,5.83
2018-06-30T11:02:39.341Z,5.20
2018-06-30T11:05:07.658Z,5.50
2018-06-30T11:07:35.805Z,5.30
2018-06-30T11:10:04.009Z,5.03
2018-06-30T11:12:32.243Z,4.17
2018-06-30T11:15:00.459Z,4.40
2018-06-30T11:17:28.682Z,5.07
2018-06-30T11:19:56.860Z,5.93
2018-06-30T11:22:25.093Z,5.70
2018-06-30T11:24:53.016Z,5.47
2018-06-30T11:27:21.260Z,5.60
2018-06-30T11:29:49.468Z,5.63
2018-06-30T11:32:17.666Z,5.60
2018-06-30T11:34:45.896Z,5.70
2018-06-30T11:37:14.095Z,5.60
2018-06-30T11:39:42.285Z,5.87
2018-06-30T11:42:10.554Z,5.60
2018-06-30T11:44:38.511Z,4.73
2018-06-30T11:47:06.896Z,4.93
2018-06-30T11:49:35.192Z,5.00
2018-06-30T11:52:03.390Z,4.60
2018-06-30T11:54:31.600Z,4.90
2018-06-30T11:56:59.816Z,5.30
2018-06-30T11:59:28.033Z,5.13
2018-06-30T12:01:56.412Z,5.13
2018-06-30T12:04:24.626Z,5.00
2018-06-30T12:06:52.595Z,5.70
2018-06-30T12:09:20.870Z,4.97
2018-06-30T12:11:49.010Z,4.50
2018-06-30T12:14:17.205Z,4.70
2018-06-30T12:16:45.435Z,4.77
2018-06-30T12:19:13.657Z,5.00
2018-06-30T12:21:41.882Z,4.80
2018-06-30T12:24:10.079Z,3.83
2018-06-30T12:26:38.354Z,5.20
2018-06-30T12:29:06.715Z,5.20
2018-06-30T12:31:34.926Z,5.20
2018-06-30T12:34:03.139Z,5.07
2018-06-30T12:36:31.360Z,4.60
2018-06-30T12:38:59.590Z,5.27
2018-06-30T12:41:27.803Z,5.20
2018-06-30T12:43:56.015Z,5.53
2018-06-30T12:46:24.232Z,5.33
2018-06-30T12:48:52.442Z,5.40
2018-06-30T12:51:20.658Z,5.57
2018-06-30T12:53:48.859Z,5.63
2018-06-30T12:56:17.057Z,4.97
2018-06-30T12:58:45.219Z,5.60
2018-06-30T13:01:13.391Z,5.77
2018-06-30T13:03:41.585Z,5.43
2018-06-30T13:06:09.706Z,5.53
2018-06-30T13:08:37.877Z,5.03
2018-06-30T13:11:06.028Z,5.07
2018-06-30T13:13:33.927Z,4.80
2018-06-30T13:16:02.090Z,4.53
2018-06-30T13:18:30.231Z,4.90
2018-06-30T13:20:58.152Z,4.70
2018-06-30T13:23:26.310Z,4.73
2018-06-30T13:25:54.486Z,4.27
2018-06-30T13:28:22.631Z,4.50
2018-06-30T13:30:50.781Z,4.13
2018-06-30T13:33:18.942Z,3.87
2018-06-30T13:35:47.107Z,4.20
2018-06-30T13:38:15.308Z,4.17
2018-06-30T13:40:43.496Z,4.10
2018-06-30T13:43:11.742Z,3.83
2018-06-30T13:45:39.575Z,5.33
2018-06-30T13:48:07.719Z,3.50
2018-06-30T13:50:35.882Z,3.90
2018-06-30T13:53:04.079Z,4.30
2018-06-30T13:55:32.232Z,4.27
2018-06-30T13:58:00.369Z,3.80
2018-06-30T14:00:28.564Z,4.67
2018-06-30T14:02:56.749Z,4.50
2018-06-30T14:05:25.050Z,4.47
2018-06-30T14:07:53.268Z,4.60
2018-06-30T14:10:21.486Z,4.90
2018-06-30T14:12:49.445Z,4.40
2018-06-30T14:15:17.662Z,4.20
2018-06-30T14:17:45.858Z,4.83
2018-06-30T14:20:14.059Z,4.50
2018-06-30T14:22:42.009Z,5.07
2018-06-30T14:25:10.224Z,4.43
2018-06-30T14:27:38.443Z,4.67
2018-06-30T14:30:09.068Z,4.50
2018-06-30T14:32:37.318Z,4.50
2018-06-30T14:35:05.707Z,4.27
2018-06-30T14:37:33.915Z,4.10
2018-06-30T14:40:02.108Z,4.70
2018-06-30T14:42:30.309Z,4.20
2018-06-30T14:44:58.517Z,4.50
2018-06-30T14:47:26.722Z,4.40
2018-06-30T14:49:54.945Z,4.47
2018-06-30T14:52:23.150Z,4.40
2018-06-30T14:54:51.368Z,3.97
2018-06-30T14:57:19.370Z,3.93
2018-06-30T14:59:47.576Z,4.00
2018-06-30T15:02:15.819Z,3.77
2018-06-30T15:04:43.973Z,3.70
2018-06-30T15:07:12.119Z,4.00
2018-06-30T15:09:40.030Z,3.70
2018-06-30T15:12:08.204Z,3.73
2018-06-30T15:14:36.365Z,4.53
2018-06-30T15:17:04.537Z,4.50
2018-06-30T15:19:32.689Z,4.07
2018-06-30T15:22:00.859Z,4.17
2018-06-30T15:24:29.027Z,3.93
2018-06-30T15:26:57.191Z,4.10
2018-06-30T15:29:25.349Z,4.20
2018-06-30T15:31:53.504Z,4.80
2018-06-30T15:34:21.722Z,4.20
2018-06-30T15:36:49.959Z,4.47
2018-06-30T15:39:18.112Z,4.37
2018-06-30T15:41:46.271Z,4.37
2018-06-30T15:44:14.418Z,4.23
2018-06-30T15:46:42.591Z,4.23
2018-06-30T15:49:10.531Z,4.00
2018-06-30T15:51:38.697Z,4.23
2018-06-30T15:54:06.881Z,4.70
2018-06-30T15:56:35.027Z,5.60
2018-06-30T15:59:03.240Z,5.07
2018-06-30T16:01:31.565Z,5.43
2018-06-30T16:03:59.773Z,5.53
2018-06-30T16:06:27.997Z,6.07
2018-06-30T16:08:56.213Z,4.80
2018-06-30T16:11:24.418Z,4.80
2018-06-30T16:13:52.630Z,4.70
2018-06-30T16:16:20.844Z,4.87
2018-06-30T16:18:49.049Z,4.93
2018-06-30T16:21:17.269Z,5.20
2018-06-30T16:23:45.496Z,5.10
2018-06-30T16:26:13.693Z,6.57
2018-06-30T16:28:41.922Z,6.43
2018-06-30T16:31:10.127Z,6.37
2018-06-30T16:33:38.065Z,6.30
2018-06-30T16:36:06.314Z,7.33
2018-06-30T16:38:34.523Z,6.50
2018-06-30T16:41:02.740Z,6.67
2018-06-30T16:43:30.946Z,6.07
2018-06-30T16:45:59.168Z,6.80
2018-06-30T16:48:27.445Z,7.30
2018-06-30T16:50:55.684Z,6.90
2018-06-30T16:53:23.909Z,7.60
2018-06-30T16:55:52.118Z,7.93
2018-06-30T16:58:20.329Z,8.03
2018-06-30T17:00:48.489Z,6.60
2018-06-30T17:03:16.638Z,8.23
2018-06-30T17:05:44.795Z,7.93
2018-06-30T17:08:13.001Z,7.40
2018-06-30T17:10:41.136Z,8.20
2018-06-30T17:13:09.323Z,8.87
2018-06-30T17:15:37.474Z,8.67
2018-06-30T17:18:05.630Z,7.70
2018-06-30T17:20:33.800Z,9.57
2018-06-30T17:23:01.949Z,8.27
2018-06-30T17:25:30.197Z,9.30
2018-06-30T17:27:58.512Z,7.20
2018-06-30T17:30:27.634Z,9.83
2018-06-30T17:32:55.782Z,8.23
2018-06-30T17:35:23.943Z,8.47
2018-06-30T17:37:52.104Z,8.80
2018-06-30T17:40:20.258Z,8.00
2018-06-30T17:42:48.424Z,8.40
2018-06-30T17:45:16.599Z,8.70
2018-06-30T17:47:44.761Z,8.07
2018-06-30T17:50:13.333Z,8.97
2018-06-30T17:52:41.527Z,8.40
2018-06-30T17:55:09.744Z,8.93
2018-06-30T17:57:37.885Z,9.50
2018-06-30T18:00:06.647Z,7.93
2018-06-30T18:02:34.799Z,8.20
2018-06-30T18:05:02.749Z,8.57
2018-06-30T18:07:30.912Z,8.27
2018-06-30T18:09:59.074Z,8.47
2018-06-30T18:12:27.216Z,8.93
2018-06-30T18:14:55.441Z,7.90
2018-06-30T18:17:23.597Z,8.80
2018-06-30T18:19:51.800Z,8.73
2018-06-30T18:22:20.080Z,8.57
2018-06-30T18:24:48.232Z,8.40
2018-06-30T18:27:16.377Z,9.80
2018-06-30T18:29:44.324Z,8.80
2018-06-30T18:32:12.466Z,9.50
2018-06-30T18:34:40.430Z,10.27
2018-06-30T18:37:08.630Z,8.03
2018-06-30T18:39:36.784Z,8.40
2018-06-30T18:42:04.955Z,8.77
2018-06-30T18:44:33.113Z,10.03
2018-06-30T18:47:01.263Z,9.80
2018-06-30T18:49:29.461Z,9.40
2018-06-30T18:51:57.637Z,8.50
2018-06-30T18:54:26.842Z,8.57
2018-06-30T18:56:54.809Z,9.10
2018-06-30T18:59:23.072Z,9.87
2018-06-30T19:01:51.286Z,9.53
2018-06-30T19:04:19.505Z,8.63
2018-06-30T19:06:47.709Z,8.90
2018-06-30T19:09:15.940Z,9.17
2018-06-30T19:11:44.122Z,8.70
2018-06-30T19:14:12.327Z,9.03
2018-06-30T19:16:40.522Z,9.57
2018-06-30T19:19:08.732Z,9.00
2018-06-30T19:21:36.958Z,8.97
2018-06-30T19:24:05.070Z,9.10
2018-06-30T19:26:33.280Z,9.33
2018-06-30T19:29:01.477Z,9.10
2018-06-30T19:31:29.448Z,9.00
2018-06-30T19:33:57.674Z,8.53
2018-06-30T19:36:25.908Z,8.03
2018-06-30T19:38:54.091Z,8.10
2018-06-30T19:41:22.332Z,8.47
2018-06-30T19:43:50.570Z,7.43
2018-06-30T19:46:18.788Z,6.30
2018-06-30T19:48:47.003Z,6.70
2018-06-30T19:51:15.224Z,6.13
2018-06-30T19:53:43.440Z,6.97
2018-06-30T19:56:11.664Z,7.30
2018-06-30T19:58:39.877Z,6.30
2018-06-30T20:01:08.092Z,6.13
2018-06-30T20:03:36.286Z,6.67
2018-06-30T20:06:04.521Z,7.10
2018-06-30T20:08:32.736Z,6.77
2018-06-30T20:11:00.972Z,7.03
2018-06-30T20:13:29.214Z,5.80
2018-06-30T20:15:57.424Z,5.80
2018-06-30T20:18:25.615Z,5.30
2018-06-30T20:20:53.848Z,5.77
2018-06-30T20:23:22.051Z,5.03
2018-06-30T20:25:50.267Z,5.13
2018-06-30T20:28:18.488Z,5.00
2018-06-30T20:30:46.698Z,4.40
2018-06-30T20:33:14.907Z,4.50
2018-06-30T20:35:43.129Z,4.33
2018-06-30T20:38:11.326Z,3.73
2018-06-30T20:40:39.552Z,5.20
2018-06-30T20:43:07.763Z,4.60
2018-06-30T20:45:35.974Z,4.30
2018-06-30T20:48:04.577Z,3.90
2018-06-30T20:50:32.512Z,3.70
2018-06-30T20:53:00.718Z,3.43
2018-06-30T20:55:28.947Z,3.90
2018-06-30T20:57:57.288Z,3.70
2018-06-30T21:00:25.503Z,3.73
2018-06-30T21:02:53.702Z,3.90
2018-06-30T21:05:21.925Z,4.33
2018-06-30T21:07:50.637Z,4.00
2018-06-30T21:10:18.854Z,3.67
2018-06-30T21:12:46.813Z,4.83
2018-06-30T21:15:14.811Z,4.37
2018-06-30T21:17:43.015Z,4.80
2018-06-30T21:20:11.228Z,4.43
2018-06-30T21:22:39.969Z,3.23
2018-06-30T21:25:08.190Z,3.20
2018-06-30T21:27:36.405Z,3.33
2018-06-30T21:30:05.137Z,3.50
2018-06-30T21:32:33.342Z,3.50
2018-06-30T21:35:01.279Z,3.83
2018-06-30T21:37:29.500Z,3.50
2018-06-30T21:39:57.694Z,3.30
2018-06-30T21:42:25.927Z,3.40
2018-06-30T21:44:53.858Z,3.03
2018-06-30T21:47:22.047Z,2.93
2018-06-30T21:49:50.252Z,3.30
2018-06-30T21:52:18.462Z,3.10
2018-06-30T21:54:46.670Z,3.00
2018-06-30T21:57:14.877Z,3.17
2018-06-30T21:59:43.469Z,2.73
2018-06-30T22:02:11.636Z,2.60
2018-06-30T22:04:39.784Z,3.10
2018-06-30T22:07:07.944Z,2.63
2018-06-30T22:09:36.103Z,3.00
2018-06-30T22:12:04.264Z,3.00
2018-06-30T22:14:32.412Z,3.40
2018-06-30T22:17:01.388Z,2.77
2018-06-30T22:19:29.539Z,2.97
2018-06-30T22:21:57.695Z,3.00
2018-06-30T22:24:25.855Z,2.73
2018-06-30T22:26:54.153Z,2.50
2018-06-30T22:29:22.309Z,2.93
2018-06-30T22:31:50.475Z,2.73
2018-06-30T22:34:18.625Z,2.50
2018-06-30T22:36:46.769Z,2.87
2018-06-30T22:39:19.146Z,2.83
2018-06-30T22:41:47.439Z,2.13
2018-06-30T22:44:15.607Z,2.47
2018-06-30T22:46:43.754Z,2.70
2018-06-30T22:49:11.673Z,2.53
2018-06-30T22:51:39.840Z,2.63
2018-06-30T22:54:07.992Z,2.27
2018-06-30T22:56:36.133Z,2.50
2018-06-30T22:59:04.383Z,2.10
2018-06-30T23:01:32.601Z,2.00
2018-06-30T23:04:00.536Z,2.13
2018-06-30T23:06:28.742Z,2.40
2018-06-30T23:08:56.683Z,2.50
2018-06-30T23:11:24.969Z,2.10
2018-06-30T23:13:53.176Z,2.23
2018-06-30T23:16:21.366Z,2.37
2018-06-30T23:18:49.575Z,2.20
2018-06-30T23:21:17.858Z,2.20
2018-06-30T23:23:46.063Z,2.90
2018-06-30T23:26:14.002Z,2.20
2018-06-30T23:28:42.232Z,1.80
2018-06-30T23:31:10.446Z,1.97
2018-06-30T23:33:38.673Z,2.27
2018-06-30T23:36:06.886Z,3.20
2018-06-30T23:38:35.097Z,2.33
2018-06-30T23:41:03.320Z,2.33
2018-06-30T23:43:31.544Z,2.40
2018-06-30T23:45:59.481Z,2.53
2018-06-30T23:48:27.687Z,2.43
2018-06-30T23:50:55.622Z,2.40
2018-06-30T23:53:23.898Z,2.57
2018-06-30T23:55:52.101Z,2.00
2018-06-30T23:58:20.330Z,2.67
